createdAt,value
2018-11-28T00:01:55.646Z,28.80
2018-11-28T00:04:23.040Z,32.17
2018-11-28T00:06:51.012Z,30.20
2018-11-28T00:09:18.355Z,29.43
2018-11-28T00:11:45.743Z,30.30
2018-11-28T00:14:13.116Z,31.30
2018-11-28T00:16:40.566Z,31.33
2018-11-28T00:19:07.913Z,30.77
2018-11-28T00:21:35.293Z,29.43
2018-11-28T00:24:03.493Z,30.43
2018-11-28T00:26:30.841Z,28.97
2018-11-28T00:28:58.291Z,33.23
2018-11-28T00:31:25.742Z,30.03
2018-11-28T00:33:53.257Z,32.27
2018-11-28T00:36:20.659Z,29.30
2018-11-28T00:38:48.028Z,30.97
2018-11-28T00:41:15.411Z,30.10
2018-11-28T00:43:42.785Z,27.00
2018-11-28T00:46:13.890Z,31.47
2018-11-28T00:48:41.374Z,31.67
2018-11-28T00:51:08.837Z,29.13
2018-11-28T00:53:36.976Z,33.53
2018-11-28T00:56:04.351Z,29.40
2018-11-28T00:58:31.822Z,33.47
2018-11-28T01:00:59.265Z,33.60
2018-11-28T01:03:32.932Z,34.40
2018-11-28T01:06:00.363Z,34.00
2018-11-28T01:08:27.823Z,31.40
2018-11-28T01:10:55.161Z,30.63
2018-11-28T01:13:22.527Z,32.67
2018-11-28T01:15:49.956Z,28.90
2018-11-28T01:18:17.329Z,33.77
2018-11-28T01:20:44.739Z,31.37
2018-11-28T01:23:12.104Z,35.13
2018-11-28T01:25:39.459Z,35.33
2018-11-28T01:28:06.936Z,31.03
2018-11-28T01:30:34.347Z,34.70
2018-11-28T01:33:01.728Z,49.83
2018-11-28T01:35:29.191Z,31.47
2018-11-28T01:37:56.647Z,35.70
2018-11-28T01:40:24.445Z,35.03
2018-11-28T01:42:52.036Z,36.87
2018-11-28T01:45:20.799Z,35.83
2018-11-28T01:47:48.182Z,33.30
2018-11-28T01:50:17.637Z,35.77
2018-11-28T01:52:45.061Z,33.63
2018-11-28T01:55:14.225Z,34.70
2018-11-28T01:57:41.619Z,37.47
2018-11-28T02:00:15.208Z,36.27
2018-11-28T02:02:42.633Z,37.40
2018-11-28T02:05:11.004Z,36.83
2018-11-28T02:07:38.496Z,37.63
2018-11-28T02:10:10.021Z,37.13
2018-11-28T02:12:37.433Z,35.40
2018-11-28T02:15:05.983Z,37.13
2018-11-28T02:17:33.423Z,38.80
2018-11-28T02:20:00.963Z,34.93
2018-11-28T02:22:28.381Z,37.40
2018-11-28T02:24:55.770Z,38.47
2018-11-28T02:27:23.207Z,33.77
2018-11-28T02:29:50.587Z,36.93
2018-11-28T02:32:18.387Z,39.17
2018-11-28T02:34:45.877Z,34.67
2018-11-28T02:37:13.356Z,36.27
2018-11-28T02:39:40.738Z,34.33
2018-11-28T02:42:08.113Z,35.77
2018-11-28T02:44:35.562Z,35.30
2018-11-28T02:47:03.065Z,35.80
2018-11-28T02:49:30.513Z,34.43
2018-11-28T02:51:57.923Z,37.00
2018-11-28T02:54:25.270Z,36.07
2018-11-28T02:56:52.777Z,36.17
2018-11-28T02:59:20.116Z,34.93
2018-11-28T03:01:47.684Z,34.83
2018-11-28T03:04:15.030Z,35.67
2018-11-28T03:06:42.388Z,39.20
2018-11-28T03:09:09.736Z,35.17
2018-11-28T03:11:37.178Z,35.07
2018-11-28T03:14:04.918Z,33.87
2018-11-28T03:16:32.387Z,34.70
2018-11-28T03:18:59.757Z,37.23
2018-11-28T03:21:27.082Z,35.53
2018-11-28T03:23:54.445Z,35.47
2018-11-28T03:26:21.797Z,34.90
2018-11-28T03:28:49.456Z,38.00
2018-11-28T03:31:17.020Z,35.37
2018-11-28T03:33:44.399Z,38.67
2018-11-28T03:36:11.835Z,38.53
2018-11-28T03:38:39.192Z,35.30
2018-11-28T03:41:06.545Z,35.47
2018-11-28T03:43:34.592Z,38.40
2018-11-28T03:46:01.952Z,33.40
2018-11-28T03:48:29.340Z,36.07
2018-11-28T03:50:56.682Z,38.03
2018-11-28T03:53:24.040Z,38.77
2018-11-28T03:55:51.512Z,39.37
2018-11-28T03:58:18.845Z,38.63
2018-11-28T04:00:46.331Z,41.07
2018-11-28T04:03:13.772Z,39.00
2018-11-28T04:05:41.280Z,38.60
2018-11-28T04:08:08.622Z,38.87
2018-11-28T04:10:36.007Z,40.07
2018-11-28T04:13:03.516Z,45.93
2018-11-28T04:15:30.881Z,44.93
2018-11-28T04:17:58.304Z,44.10
2018-11-28T04:20:30.238Z,43.97
2018-11-28T04:22:57.736Z,47.20
2018-11-28T04:25:25.218Z,47.47
2018-11-28T04:27:52.632Z,45.87
2018-11-28T04:30:22.134Z,44.27
2018-11-28T04:32:50.175Z,43.63
2018-11-28T04:35:17.646Z,48.10
2018-11-28T04:37:45.609Z,44.37
2018-11-28T04:40:14.092Z,46.17
2018-11-28T04:42:42.025Z,49.97
2018-11-28T04:45:11.895Z,47.93
2018-11-28T04:47:39.913Z,45.80
2018-11-28T04:50:08.611Z,49.00
2018-11-28T04:52:35.971Z,44.77
2018-11-28T04:55:04.978Z,50.63
2018-11-28T04:57:32.467Z,46.53
2018-11-28T04:59:59.890Z,50.93
2018-11-28T05:02:27.377Z,47.30
2018-11-28T05:04:54.863Z,44.80
2018-11-28T05:07:25.517Z,45.67
2018-11-28T05:09:53.142Z,45.07
2018-11-28T05:12:21.122Z,49.93
2018-11-28T05:14:48.606Z,42.60
2018-11-28T05:17:16.019Z,46.30
2018-11-28T05:19:43.373Z,43.23
2018-11-28T05:22:10.860Z,46.27
2018-11-28T05:24:38.376Z,45.07
2018-11-28T05:27:05.708Z,47.23
2018-11-28T05:29:33.282Z,42.30
2018-11-28T05:32:00.644Z,43.47
2018-11-28T05:34:28.016Z,48.33
2018-11-28T05:36:55.376Z,45.03
2018-11-28T05:39:23.052Z,41.10
2018-11-28T05:41:50.390Z,45.83
2018-11-28T05:44:17.780Z,43.87
2018-11-28T05:46:45.154Z,41.93
2018-11-28T05:49:15.125Z,42.83
2018-11-28T05:51:40.029Z,47.37
2018-11-28T05:54:07.510Z,49.53
2018-11-28T05:56:34.960Z,45.97
2018-11-28T05:59:03.457Z,46.63
2018-11-28T06:01:29.811Z,45.10
2018-11-28T06:03:57.311Z,44.53
2018-11-28T06:06:24.673Z,44.93
2018-11-28T06:08:52.684Z,46.60
2018-11-28T06:11:20.177Z,47.37
2018-11-28T06:13:47.531Z,45.07
2018-11-28T06:16:15.076Z,42.70
2018-11-28T06:18:42.481Z,47.43
2018-11-28T06:21:09.845Z,43.37
2018-11-28T06:23:37.192Z,47.97
2018-11-28T06:26:05.017Z,42.63
2018-11-28T06:28:32.445Z,46.80
2018-11-28T06:30:59.846Z,44.90
2018-11-28T06:33:27.221Z,43.40
2018-11-28T06:35:54.712Z,42.73
2018-11-28T06:38:22.047Z,39.97
2018-11-28T06:40:49.543Z,45.60
2018-11-28T06:43:17.007Z,43.40
2018-11-28T06:45:44.365Z,41.80
2018-11-28T06:48:11.732Z,43.60
2018-11-28T06:50:39.213Z,48.30
2018-11-28T06:53:06.748Z,44.07
2018-11-28T06:55:34.141Z,44.47
2018-11-28T06:58:01.513Z,41.90
2018-11-28T07:00:29.424Z,42.63
2018-11-28T07:02:56.792Z,43.03
2018-11-28T07:05:24.896Z,41.87
2018-11-28T07:07:52.712Z,46.13
2018-11-28T07:10:21.173Z,44.87
2018-11-28T07:12:48.572Z,43.53
2018-11-28T07:15:20.088Z,40.97
2018-11-28T07:17:47.466Z,46.70
2018-11-28T07:20:15.852Z,47.60
2018-11-28T07:22:43.324Z,45.53
2018-11-28T07:25:12.714Z,43.97
2018-11-28T07:27:45.116Z,42.90
2018-11-28T07:30:11.142Z,43.83
2018-11-28T07:32:38.640Z,45.83
2018-11-28T07:35:06.754Z,46.57
2018-11-28T07:37:34.132Z,46.73
2018-11-28T07:40:01.548Z,48.43
2018-11-28T07:42:28.892Z,42.60
2018-11-28T07:44:56.304Z,43.27
2018-11-28T07:47:23.664Z,46.37
2018-11-28T07:49:51.048Z,49.67
2018-11-28T07:52:18.479Z,46.37
2018-11-28T07:54:45.872Z,41.83
2018-11-28T07:57:13.496Z,48.10
2018-11-28T07:59:40.861Z,46.20
2018-11-28T08:02:08.291Z,45.07
2018-11-28T08:04:35.708Z,44.37
2018-11-28T08:07:03.163Z,47.47
2018-11-28T08:09:30.538Z,55.47
2018-11-28T08:11:57.920Z,47.90
2018-11-28T08:14:25.335Z,51.13
2018-11-28T08:16:52.757Z,44.43
2018-11-28T08:19:23.994Z,43.87
2018-11-28T08:21:47.480Z,47.90
2018-11-28T08:24:14.852Z,44.10
2018-11-28T08:26:42.398Z,47.73
2018-11-28T08:29:09.878Z,45.77
2018-11-28T08:31:37.219Z,47.90
2018-11-28T08:34:04.905Z,46.37
2018-11-28T08:36:32.222Z,44.87
2018-11-28T08:38:59.664Z,43.53
2018-11-28T08:41:27.600Z,44.30
2018-11-28T08:43:54.920Z,43.60
2018-11-28T08:46:22.346Z,44.20
2018-11-28T08:48:49.697Z,43.77
2018-11-28T08:51:17.201Z,43.60
2018-11-28T08:53:45.107Z,41.67
2018-11-28T08:56:12.553Z,43.40
2018-11-28T08:58:39.994Z,40.00
2018-11-28T09:01:07.430Z,40.27
2018-11-28T09:03:38.549Z,44.80
2018-11-28T09:06:06.272Z,43.03
2018-11-28T09:08:33.646Z,40.30
2018-11-28T09:11:01.100Z,40.77
2018-11-28T09:13:28.485Z,40.40
2018-11-28T09:15:55.897Z,41.03
2018-11-28T09:18:24.129Z,43.40
2018-11-28T09:20:51.520Z,42.63
2018-11-28T09:23:18.866Z,41.93
2018-11-28T09:25:46.292Z,38.77
2018-11-28T09:28:13.634Z,41.43
2018-11-28T09:30:41.001Z,40.80
2018-11-28T09:33:08.779Z,42.03
2018-11-28T09:35:35.777Z,41.97
2018-11-28T09:38:03.122Z,41.80
2018-11-28T09:40:30.592Z,41.53
2018-11-28T09:42:58.811Z,42.70
2018-11-28T09:45:26.633Z,42.33
2018-11-28T09:47:54.032Z,40.20
2018-11-28T09:50:22.904Z,40.43
2018-11-28T09:52:50.471Z,41.07
2018-11-28T09:55:19.675Z,42.73
2018-11-28T09:57:47.346Z,41.53
2018-11-28T10:00:18.227Z,39.63
2018-11-28T10:02:45.611Z,39.30
2018-11-28T10:05:15.333Z,39.73
2018-11-28T10:07:42.885Z,41.63
2018-11-28T10:10:11.625Z,38.53
2018-11-28T10:12:38.997Z,40.90
2018-11-28T10:15:12.872Z,40.93
2018-11-28T10:17:40.387Z,39.07
2018-11-28T10:20:09.060Z,38.67
2018-11-28T10:22:36.423Z,39.27
2018-11-28T10:25:04.138Z,41.27
2018-11-28T10:27:31.491Z,38.67
2018-11-28T10:29:59.500Z,40.27
2018-11-28T10:32:26.846Z,38.47
2018-11-28T10:34:54.193Z,41.03
2018-11-28T10:37:21.565Z,37.87
2018-11-28T10:39:49.718Z,38.27
2018-11-28T10:42:17.145Z,35.87
2018-11-28T10:44:44.558Z,36.57
2018-11-28T10:47:12.034Z,36.73
2018-11-28T10:49:39.439Z,36.70
2018-11-28T10:52:06.994Z,35.40
2018-11-28T10:54:34.463Z,36.93
2018-11-28T10:57:01.903Z,37.43
2018-11-28T10:59:29.257Z,34.97
2018-11-28T11:02:02.360Z,32.87
2018-11-28T11:05:34.370Z,35.10
2018-11-28T11:08:07.338Z,34.27
2018-11-28T11:10:40.372Z,34.07
2018-11-28T11:13:13.494Z,37.27
2018-11-28T11:15:41.302Z,32.00
2018-11-28T11:18:10.749Z,31.47
2018-11-28T11:20:37.290Z,33.17
2018-11-28T11:23:06.141Z,31.03
2018-11-28T11:25:33.661Z,34.23
2018-11-28T11:28:01.053Z,30.00
2018-11-28T11:30:28.392Z,32.07
2018-11-28T11:32:55.763Z,29.67
2018-11-28T11:35:23.595Z,30.70
2018-11-28T11:37:51.464Z,29.60
2018-11-28T11:40:23.890Z,28.80
2018-11-28T11:42:51.806Z,30.60
2018-11-28T11:45:19.144Z,28.47
2018-11-28T11:47:46.643Z,29.90
2018-11-28T11:50:16.112Z,26.40
2018-11-28T11:52:43.774Z,26.40
2018-11-28T11:55:13.287Z,25.70
2018-11-28T11:57:40.739Z,25.20
2018-11-28T12:00:14.749Z,25.13
2018-11-28T12:02:43.385Z,24.13
2018-11-28T12:05:11.754Z,23.87
2018-11-28T12:07:39.233Z,25.67
2018-11-28T12:10:10.010Z,25.93
2018-11-28T12:12:37.471Z,28.93
2018-11-28T12:15:07.465Z,23.43
2018-11-28T12:17:35.110Z,27.33
2018-11-28T12:20:02.550Z,23.13
2018-11-28T12:22:29.919Z,25.47
2018-11-28T12:24:57.249Z,25.70
2018-11-28T12:27:24.642Z,25.10
2018-11-28T12:29:52.065Z,26.47
2018-11-28T12:32:19.717Z,26.07
2018-11-28T12:34:50.413Z,30.00
2018-11-28T12:37:14.593Z,26.23
2018-11-28T12:39:42.036Z,28.60
2018-11-28T12:42:09.571Z,29.43
2018-11-28T12:44:37.008Z,28.33
2018-11-28T12:47:05.274Z,28.90
2018-11-28T12:49:32.655Z,29.40
2018-11-28T12:52:00.159Z,29.67
2018-11-28T12:54:27.610Z,28.60
2018-11-28T12:56:55.214Z,28.27
2018-11-28T12:59:22.676Z,30.40
2018-11-28T13:01:50.152Z,29.17
2018-11-28T13:04:17.543Z,26.50
2018-11-28T13:06:44.935Z,31.60
2018-11-28T13:09:12.336Z,29.33
2018-11-28T13:11:39.761Z,30.90
2018-11-28T13:14:07.105Z,29.97
2018-11-28T13:16:34.626Z,27.50
2018-11-28T13:19:02.008Z,28.23
2018-11-28T13:21:29.364Z,28.13
2018-11-28T13:23:56.677Z,29.13
2018-11-28T13:26:24.156Z,32.20
2018-11-28T13:28:51.530Z,31.77
2018-11-28T13:31:18.908Z,28.73
2018-11-28T13:33:46.254Z,30.37
2018-11-28T13:36:13.676Z,29.27
2018-11-28T13:38:41.053Z,30.90
2018-11-28T13:41:08.418Z,31.90
2018-11-28T13:43:36.305Z,30.10
2018-11-28T13:46:07.160Z,29.43
2018-11-28T13:48:31.822Z,29.17
2018-11-28T13:50:59.288Z,30.90
2018-11-28T13:53:26.706Z,28.67
2018-11-28T13:56:57.244Z,29.33
2018-11-28T13:58:23.785Z,30.70
2018-11-28T14:00:51.176Z,27.67
2018-11-28T14:03:18.637Z,27.17
2018-11-28T14:05:46.091Z,27.00
2018-11-28T14:08:13.469Z,28.40
2018-11-28T14:10:40.923Z,31.17
2018-11-28T14:13:08.346Z,26.77
2018-11-28T14:15:35.675Z,27.93
2018-11-28T14:18:12.657Z,26.03
2018-11-28T14:20:44.583Z,27.57
2018-11-28T14:23:12.108Z,27.80
2018-11-28T14:25:39.518Z,31.63
2018-11-28T14:28:07.515Z,30.23
2018-11-28T14:30:36.286Z,32.37
2018-11-28T14:33:03.735Z,27.80
2018-11-28T14:35:31.412Z,25.47
2018-11-28T14:37:58.790Z,28.43
2018-11-28T14:40:26.242Z,27.37
2018-11-28T14:42:54.934Z,25.67
2018-11-28T14:45:22.397Z,27.53
2018-11-28T14:47:50.683Z,28.43
2018-11-28T14:50:19.138Z,30.37
2018-11-28T14:52:47.422Z,26.60
2018-11-28T14:55:17.486Z,27.27
2018-11-28T14:57:44.892Z,31.73
2018-11-28T15:00:15.342Z,28.33
2018-11-28T15:02:42.867Z,28.27
2018-11-28T15:05:14.988Z,28.07
2018-11-28T15:07:42.368Z,29.93
2018-11-28T15:10:11.068Z,27.00
2018-11-28T15:12:38.443Z,26.07
2018-11-28T15:15:07.055Z,27.60
2018-11-28T15:17:34.416Z,30.07
2018-11-28T15:20:01.882Z,29.03
2018-11-28T15:22:29.349Z,29.77
2018-11-28T15:24:56.748Z,28.67
2018-11-28T15:27:24.195Z,26.43
2018-11-28T15:29:52.125Z,26.20
2018-11-28T15:32:19.629Z,27.43
2018-11-28T15:34:47.046Z,26.33
2018-11-28T15:37:14.541Z,26.63
2018-11-28T15:39:42.069Z,30.57
2018-11-28T15:42:09.579Z,28.67
2018-11-28T15:44:37.658Z,28.70
2018-11-28T15:47:05.355Z,29.23
2018-11-28T15:49:32.747Z,29.20
2018-11-28T15:52:00.161Z,31.43
2018-11-28T15:54:27.538Z,30.97
2018-11-28T15:56:54.978Z,30.20
2018-11-28T15:59:22.364Z,29.17
2018-11-28T16:01:49.738Z,29.83
2018-11-28T16:04:17.230Z,32.07
2018-11-28T16:06:44.696Z,29.63
2018-11-28T16:09:17.828Z,29.13
2018-11-28T16:11:45.250Z,29.63
2018-11-28T16:14:12.631Z,32.90
2018-11-28T16:16:40.060Z,28.63
2018-11-28T16:19:07.439Z,29.07
2018-11-28T16:21:34.816Z,29.90
2018-11-28T16:24:02.189Z,27.70
2018-11-28T16:26:30.348Z,29.17
2018-11-28T16:28:57.744Z,33.37
2018-11-28T16:31:25.348Z,29.90
2018-11-28T16:33:52.990Z,32.23
2018-11-28T16:36:20.333Z,31.93
2018-11-28T16:38:47.704Z,31.07
2018-11-28T16:41:15.132Z,31.00
2018-11-28T16:43:42.530Z,36.10
2018-11-28T16:46:09.890Z,32.60
2018-11-28T16:48:37.305Z,28.40
2018-11-28T16:51:05.067Z,31.03
2018-11-28T16:53:32.582Z,29.07
2018-11-28T16:56:00.027Z,29.53
2018-11-28T16:58:27.479Z,28.70
2018-11-28T17:00:54.970Z,30.27
2018-11-28T17:03:22.405Z,30.10
2018-11-28T17:05:50.393Z,29.20
2018-11-28T17:08:17.946Z,31.77
2018-11-28T17:10:45.289Z,31.27
2018-11-28T17:13:12.675Z,29.57
2018-11-28T17:15:40.153Z,29.97
2018-11-28T17:18:07.505Z,31.73
2018-11-28T17:20:36.211Z,29.50
2018-11-28T17:23:04.193Z,30.70
2018-11-28T17:25:32.244Z,26.90
2018-11-28T17:27:59.677Z,28.03
2018-11-28T17:30:28.399Z,27.13
2018-11-28T17:32:55.783Z,28.57
2018-11-28T17:35:23.273Z,30.13
2018-11-28T17:37:51.047Z,27.27
2018-11-28T17:40:21.633Z,28.27
2018-11-28T17:42:50.421Z,27.67
2018-11-28T17:45:18.487Z,27.00
2018-11-28T17:47:46.577Z,27.53
2018-11-28T17:50:16.178Z,30.23
2018-11-28T17:52:46.589Z,27.07
2018-11-28T17:55:16.017Z,45.27
2018-11-28T17:57:43.367Z,34.73
2018-11-28T18:00:12.427Z,27.20
2018-11-28T18:02:40.458Z,24.83
2018-11-28T18:05:09.265Z,26.87
2018-11-28T18:07:36.707Z,27.40
2018-11-28T18:10:07.268Z,22.93
2018-11-28T18:12:34.597Z,28.47
2018-11-28T18:15:02.098Z,26.30
2018-11-28T18:17:29.468Z,25.97
2018-11-28T18:19:57.875Z,28.83
2018-11-28T18:22:25.274Z,27.03
2018-11-28T18:24:52.833Z,26.27
2018-11-28T18:27:20.312Z,25.10
2018-11-28T18:29:47.771Z,25.17
2018-11-28T18:32:15.126Z,25.27
2018-11-28T18:34:42.558Z,26.47
2018-11-28T18:37:09.947Z,26.17
2018-11-28T18:39:37.342Z,26.83
2018-11-28T18:42:04.712Z,27.87
2018-11-28T18:44:32.142Z,27.17
2018-11-28T18:46:59.590Z,27.77
2018-11-28T18:49:27.150Z,23.93
2018-11-28T18:51:54.472Z,30.80
2018-11-28T18:54:21.910Z,28.07
2018-11-28T18:56:49.280Z,31.53
2018-11-28T18:59:17.298Z,28.27
2018-11-28T19:01:48.410Z,27.30
2018-11-28T19:04:12.247Z,27.93
2018-11-28T19:06:39.823Z,27.10
2018-11-28T19:09:10.053Z,26.03
2018-11-28T19:11:37.471Z,25.60
2018-11-28T19:14:05.788Z,24.63
2018-11-28T19:16:37.857Z,26.57
2018-11-28T19:19:00.688Z,29.03
2018-11-28T19:21:28.189Z,27.73
2018-11-28T19:23:55.540Z,24.53
2018-11-28T19:26:22.905Z,26.10
2018-11-28T19:28:50.534Z,28.57
2018-11-28T19:31:18.000Z,25.33
2018-11-28T19:33:46.339Z,27.43
2018-11-28T19:36:13.791Z,27.50
2018-11-28T19:38:41.137Z,25.57
2018-11-28T19:41:13.522Z,27.47
2018-11-28T19:43:41.116Z,24.80
2018-11-28T19:46:08.557Z,27.27
2018-11-28T19:48:36.001Z,29.23
2018-11-28T19:51:03.489Z,30.20
2018-11-28T19:53:30.900Z,26.77
2018-11-28T19:55:58.412Z,25.03
2018-11-28T19:58:25.745Z,24.40
2018-11-28T20:00:53.176Z,27.90
2018-11-28T20:03:20.673Z,31.27
2018-11-28T20:05:48.130Z,28.17
2018-11-28T20:08:15.617Z,27.53
2018-11-28T20:10:42.984Z,29.70
2018-11-28T20:13:10.577Z,25.37
2018-11-28T20:15:40.582Z,28.43
2018-11-28T20:18:08.112Z,29.10
2018-11-28T20:20:35.533Z,28.30
2018-11-28T20:23:03.094Z,27.20
2018-11-28T20:25:30.577Z,29.33
2018-11-28T20:28:00.312Z,31.53
2018-11-28T20:30:31.440Z,27.83
2018-11-28T20:32:58.946Z,24.93
2018-11-28T20:35:26.324Z,28.03
2018-11-28T20:37:53.750Z,27.33
2018-11-28T20:40:21.181Z,25.63
2018-11-28T20:42:50.460Z,26.87
2018-11-28T20:45:17.915Z,27.50
2018-11-28T20:47:45.457Z,24.40
2018-11-28T20:50:15.209Z,27.97
2018-11-28T20:52:44.674Z,27.33
2018-11-28T20:55:12.152Z,28.07
2018-11-28T20:57:39.612Z,28.40
2018-11-28T21:00:10.453Z,28.13
2018-11-28T21:02:37.921Z,29.43
2018-11-28T21:05:05.346Z,28.30
2018-11-28T21:07:32.665Z,28.87
2018-11-28T21:10:05.784Z,25.90
2018-11-28T21:12:33.293Z,27.53
2018-11-28T21:15:01.914Z,26.60
2018-11-28T21:17:29.374Z,29.17
2018-11-28T21:19:56.744Z,34.93
2018-11-28T21:22:24.194Z,28.93
2018-11-28T21:24:51.762Z,29.53
2018-11-28T21:27:19.223Z,27.63
2018-11-28T21:29:46.606Z,28.67
2018-11-28T21:32:13.987Z,28.57
2018-11-28T21:34:41.368Z,28.83
2018-11-28T21:37:08.767Z,28.00
2018-11-28T21:39:36.238Z,26.57
2018-11-28T21:42:04.232Z,26.50
2018-11-28T21:44:31.674Z,26.00
2018-11-28T21:46:59.300Z,24.60
2018-11-28T21:49:26.679Z,28.30
2018-11-28T21:51:54.069Z,28.17
2018-11-28T21:54:21.524Z,26.37
2018-11-28T21:56:49.048Z,26.30
2018-11-28T21:59:17.150Z,27.97
2018-11-28T22:01:44.678Z,27.40
2018-11-28T22:04:12.036Z,26.13
2018-11-28T22:06:39.386Z,29.10
2018-11-28T22:09:08.697Z,26.13
2018-11-28T22:11:36.565Z,27.07
2018-11-28T22:14:04.445Z,28.87
2018-11-28T22:16:31.789Z,27.43
2018-11-28T22:18:59.199Z,29.60
2018-11-28T22:21:26.651Z,28.60
2018-11-28T22:23:54.143Z,26.67
2018-11-28T22:26:21.485Z,25.47
2018-11-28T22:28:49.073Z,25.30
2018-11-28T22:31:16.474Z,28.37
2018-11-28T22:33:44.457Z,29.87
2018-11-28T22:36:11.818Z,28.70
2018-11-28T22:38:39.187Z,26.40
2018-11-28T22:41:06.591Z,32.13
2018-11-28T22:43:34.490Z,29.67
2018-11-28T22:46:01.817Z,27.23
2018-11-28T22:48:29.352Z,25.43
2018-11-28T22:50:56.666Z,25.93
2018-11-28T22:53:24.070Z,26.77
2018-11-28T22:55:51.946Z,27.93
2018-11-28T22:58:19.339Z,26.57
2018-11-28T23:00:52.508Z,27.90
2018-11-28T23:03:19.908Z,26.13
2018-11-28T23:05:50.422Z,28.37
2018-11-28T23:08:18.728Z,28.30
2018-11-28T23:10:46.584Z,26.93
2018-11-28T23:13:16.124Z,26.93
2018-11-28T23:15:43.552Z,29.07
2018-11-28T23:18:11.320Z,27.20
2018-11-28T23:20:38.853Z,27.87
2018-11-28T23:23:07.321Z,29.33
2018-11-28T23:25:34.841Z,26.60
2018-11-28T23:28:02.933Z,25.63
2018-11-28T23:30:30.363Z,28.47
2018-11-28T23:32:57.768Z,26.73
2018-11-28T23:35:25.340Z,26.77
2018-11-28T23:37:52.696Z,26.53
2018-11-28T23:40:25.239Z,27.43
2018-11-28T23:42:53.529Z,28.10
2018-11-28T23:45:21.433Z,24.30
2018-11-28T23:47:49.335Z,27.40
2018-11-28T23:50:18.533Z,24.50
2018-11-28T23:52:46.327Z,26.33
2018-11-28T23:55:14.745Z,25.30
2018-11-28T23:57:42.177Z,25.63
